Notre-Dame-du-Portage, Canada
Current Conditions -  °F | °C
As of 7:53 PM on Monday 20 Oct 2014 (Local Time) from KFVE Reporting Station
Overcast Overcast  
Wind Chill: 30°   Ceiling: 3800
Heat Index: 34°   Visibility: 10mi
Dew Point: 25°   Wind: 5mph
Humidity: 70%   Direction: 290°WNW
Pressure: 29.86"   Gusts: NA
Location:  47.76°N, 69.61°W
Report Text: KFVE 202353Z AUTO 29004KT 10SM OVC038 01/M04 A2986 RMK AO2 SLP120 T00111039 10056 20011 51023
Loading
Personal Weather Stations






























Interactive Weather Map
Tropical Storm Tracking
New forecast layout! Learn more

10-Day Weather Forecast

Advertisements
Track Severe Weather on mobile